sensor_id;sensor_type;location;lat;lon;timestamp;pressure;altitude;pressure_sealevel;temperature;humidity
9521;BME280;4798;41.574;23.734;2023-06-14T00:00:04;94999.63;;;20.08;100.00
9521;BME280;4798;41.574;23.734;2023-06-14T00:02:34;95005.22;;;20.15;100.00
9521;BME280;4798;41.574;23.734;2023-06-14T00:05:05;95006.13;;;20.07;100.00
9521;BME280;4798;41.574;23.734;2023-06-14T00:07:34;95000.41;;;20.09;100.00
9521;BME280;4798;41.574;23.734;2023-06-14T00:10:03;94988.41;;;19.82;100.00
9521;BME280;4798;41.574;23.734;2023-06-14T00:12:32;94994.56;;;20.07;100.00
9521;BME280;4798;41.574;23.734;2023-06-14T00:15:00;94971.38;;;20.02;100.00
9521;BME280;4798;41.574;23.734;2023-06-14T00:17:29;94996.25;;;19.99;100.00
9521;BME280;4798;41.574;23.734;2023-06-14T00:19:58;94988.09;;;20.08;100.00
9521;BME280;4798;41.574;23.734;2023-06-14T00:22:28;94977.88;;;20.13;100.00
9521;BME280;4798;41.574;23.734;2023-06-14T00:24:57;94989.66;;;20.21;100.00
9521;BME280;4798;41.574;23.734;2023-06-14T00:27:37;94975.16;;;20.01;100.00
9521;BME280;4798;41.574;23.734;2023-06-14T00:30:06;94975.63;;;19.67;100.00
9521;BME280;4798;41.574;23.734;2023-06-14T00:32:35;94972.78;;;19.63;100.00
9521;BME280;4798;41.574;23.734;2023-06-14T00:35:04;94980.78;;;19.84;100.00
9521;BME280;4798;41.574;23.734;2023-06-14T00:37:36;94976.09;;;19.93;100.00
9521;BME280;4798;41.574;23.734;2023-06-14T00:40:05;94972.47;;;20.01;100.00
9521;BME280;4798;41.574;23.734;2023-06-14T00:42:34;94971.81;;;20.16;100.00
9521;BME280;4798;41.574;23.734;2023-06-14T00:45:03;94969.66;;;20.22;100.00
9521;BME280;4798;41.574;23.734;2023-06-14T00:47:31;94965.56;;;20.24;100.00
9521;BME280;4798;41.574;23.734;2023-06-14T00:50:00;94954.78;;;20.24;100.00
9521;BME280;4798;41.574;23.734;2023-06-14T00:52:29;94959.03;;;19.77;100.00
9521;BME280;4798;41.574;23.734;2023-06-14T00:55:01;94923.97;;;19.61;100.00
9521;BME280;4798;41.574;23.734;2023-06-14T00:57:29;94956.56;;;19.96;100.00
9521;BME280;4798;41.574;23.734;2023-06-14T00:59:58;94958.72;;;20.03;100.00
9521;BME280;4798;41.574;23.734;2023-06-14T01:02:26;94950.72;;;20.06;100.00
9521;BME280;4798;41.574;23.734;2023-06-14T01:04:54;94953.75;;;20.17;100.00
9521;BME280;4798;41.574;23.734;2023-06-14T01:07:37;94953.44;;;20.06;100.00
9521;BME280;4798;41.574;23.734;2023-06-14T01:10:21;94942.00;;;19.97;100.00
9521;BME280;4798;41.574;23.734;2023-06-14T01:12:58;94957.69;;;20.07;100.00
9521;BME280;4798;41.574;23.734;2023-06-14T01:15:30;94944.69;;;19.85;100.00
9521;BME280;4798;41.574;23.734;2023-06-14T01:17:59;94954.56;;;19.93;100.00
9521;BME280;4798;41.574;23.734;2023-06-14T01:20:32;94959.47;;;19.91;100.00
9521;BME280;4798;41.574;23.734;2023-06-14T01:23:05;94959.56;;;19.46;100.00
9521;BME280;4798;41.574;23.734;2023-06-14T01:25:33;94949.72;;;19.62;100.00
9521;BME280;4798;41.574;23.734;2023-06-14T01:28:05;94964.94;;;19.58;100.00
9521;BME280;4798;41.574;23.734;2023-06-14T01:30:38;94960.78;;;19.37;100.00
9521;BME280;4798;41.574;23.734;2023-06-14T01:33:10;94966.63;;;19.51;100.00
9521;BME280;4798;41.574;23.734;2023-06-14T01:35:40;94968.19;;;19.40;100.00
9521;BME280;4798;41.574;23.734;2023-06-14T01:38:10;94972.09;;;19.10;100.00
9521;BME280;4798;41.574;23.734;2023-06-14T01:40:40;94963.28;;;18.88;100.00
9521;BME280;4798;41.574;23.734;2023-06-14T01:43:11;94964.06;;;18.48;100.00
9521;BME280;4798;41.574;23.734;2023-06-14T01:45:41;94963.28;;;18.47;100.00
9521;BME280;4798;41.574;23.734;2023-06-14T01:48:10;94962.50;;;18.67;100.00
9521;BME280;4798;41.574;23.734;2023-06-14T01:50:39;94965.72;;;18.81;100.00
9521;BME280;4798;41.574;23.734;2023-06-14T01:53:09;94961.69;;;18.87;100.00
9521;BME280;4798;41.574;23.734;2023-06-14T01:55:38;94961.22;;;19.06;100.00
9521;BME280;4798;41.574;23.734;2023-06-14T01:58:10;94950.41;;;19.27;100.00
9521;BME280;4798;41.574;23.734;2023-06-14T02:00:38;94949.41;;;19.19;100.00
9521;BME280;4798;41.574;23.734;2023-06-14T02:03:07;94957.53;;;19.11;100.00
9521;BME280;4798;41.574;23.734;2023-06-14T02:05:35;94959.78;;;19.09;100.00
9521;BME280;4798;41.574;23.734;2023-06-14T02:08:06;94959.94;;;18.91;100.00
9521;BME280;4798;41.574;23.734;2023-06-14T02:10:36;94954.13;;;18.89;100.00
9521;BME280;4798;41.574;23.734;2023-06-14T02:13:04;94964.94;;;19.14;100.00
9521;BME280;4798;41.574;23.734;2023-06-14T02:15:33;94899.72;;;18.60;100.00
9521;BME280;4798;41.574;23.734;2023-06-14T02:18:03;94962.25;;;19.14;100.00
9521;BME280;4798;41.574;23.734;2023-06-14T02:20:31;94898.59;;;18.81;100.00
9521;BME280;4798;41.574;23.734;2023-06-14T02:22:59;94918.78;;;18.67;100.00
9521;BME280;4798;41.574;23.734;2023-06-14T02:25:28;94960.34;;;18.81;100.00
9521;BME280;4798;41.574;23.734;2023-06-14T02:27:58;94950.81;;;19.05;100.00
9521;BME280;4798;41.574;23.734;2023-06-14T02:30:26;94956.47;;;19.24;100.00
9521;BME280;4798;41.574;23.734;2023-06-14T02:32:54;94955.78;;;19.27;100.00
9521;BME280;4798;41.574;23.734;2023-06-14T02:35:24;94950.94;;;19.20;100.00
9521;BME280;4798;41.574;23.734;2023-06-14T02:37:53;94955.28;;;19.13;100.00
9521;BME280;4798;41.574;23.734;2023-06-14T02:40:22;94968.66;;;19.21;100.00
9521;BME280;4798;41.574;23.734;2023-06-14T02:42:51;94967.75;;;19.17;100.00
9521;BME280;4798;41.574;23.734;2023-06-14T02:45:20;94972.72;;;19.27;100.00
9521;BME280;4798;41.574;23.734;2023-06-14T02:47:49;94980.88;;;18.98;100.00
9521;BME280;4798;41.574;23.734;2023-06-14T02:50:18;94993.25;;;18.90;100.00
9521;BME280;4798;41.574;23.734;2023-06-14T02:52:48;94992.38;;;18.86;100.00
9521;BME280;4798;41.574;23.734;2023-06-14T02:55:16;94990.53;;;18.78;100.00
9521;BME280;4798;41.574;23.734;2023-06-14T02:57:46;94993.31;;;18.40;100.00
9521;BME280;4798;41.574;23.734;2023-06-14T03:00:15;94997.88;;;18.40;100.00
9521;BME280;4798;41.574;23.734;2023-06-14T03:02:46;94988.84;;;18.74;100.00
9521;BME280;4798;41.574;23.734;2023-06-14T03:05:14;95000.31;;;18.95;100.00
9521;BME280;4798;41.574;23.734;2023-06-14T03:07:43;95003.00;;;18.95;100.00
9521;BME280;4798;41.574;23.734;2023-06-14T03:10:12;95007.72;;;18.98;100.00
9521;BME280;4798;41.574;23.734;2023-06-14T03:12:41;94998.56;;;18.99;100.00
9521;BME280;4798;41.574;23.734;2023-06-14T03:15:10;95008.41;;;18.74;100.00
9521;BME280;4798;41.574;23.734;2023-06-14T03:17:40;95018.38;;;18.74;100.00
9521;BME280;4798;41.574;23.734;2023-06-14T03:20:14;95013.59;;;18.59;100.00
9521;BME280;4798;41.574;23.734;2023-06-14T03:22:43;95011.75;;;18.21;100.00
9521;BME280;4798;41.574;23.734;2023-06-14T03:25:13;95011.59;;;18.18;100.00
9521;BME280;4798;41.574;23.734;2023-06-14T03:27:42;95010.97;;;18.12;100.00
9521;BME280;4798;41.574;23.734;2023-06-14T03:30:11;95022.31;;;18.18;100.00
9521;BME280;4798;41.574;23.734;2023-06-14T03:32:40;95025.88;;;18.30;100.00
9521;BME280;4798;41.574;23.734;2023-06-14T03:35:08;95015.47;;;18.58;100.00
9521;BME280;4798;41.574;23.734;2023-06-14T03:37:45;95017.56;;;18.73;100.00
9521;BME280;4798;41.574;23.734;2023-06-14T03:40:15;95022.47;;;18.21;100.00
9521;BME280;4798;41.574;23.734;2023-06-14T03:42:44;95024.59;;;18.36;100.00
9521;BME280;4798;41.574;23.734;2023-06-14T03:45:12;95033.22;;;18.13;100.00
9521;BME280;4798;41.574;23.734;2023-06-14T03:47:41;95038.13;;;18.11;100.00
9521;BME280;4798;41.574;23.734;2023-06-14T03:50:10;95034.56;;;17.98;100.00
9521;BME280;4798;41.574;23.734;2023-06-14T03:52:39;95028.97;;;18.41;100.00
9521;BME280;4798;41.574;23.734;2023-06-14T03:55:10;95026.84;;;18.55;100.00
9521;BME280;4798;41.574;23.734;2023-06-14T03:57:43;95024.72;;;18.69;100.00
9521;BME280;4798;41.574;23.734;2023-06-14T04:00:12;95019.34;;;18.90;100.00
9521;BME280;4798;41.574;23.734;2023-06-14T04:02:42;95026.34;;;18.82;100.00
9521;BME280;4798;41.574;23.734;2023-06-14T04:05:12;95035.59;;;18.93;100.00
9521;BME280;4798;41.574;23.734;2023-06-14T04:07:44;95029.50;;;18.84;100.00
9521;BME280;4798;41.574;23.734;2023-06-14T04:10:15;95028.72;;;19.05;100.00
9521;BME280;4798;41.574;23.734;2023-06-14T04:12:43;95027.69;;;19.30;100.00
9521;BME280;4798;41.574;23.734;2023-06-14T04:15:12;95033.50;;;19.32;100.00
9521;BME280;4798;41.574;23.734;2023-06-14T04:17:47;95027.63;;;19.38;100.00
9521;BME280;4798;41.574;23.734;2023-06-14T04:20:16;95021.50;;;18.96;100.00
9521;BME280;4798;41.574;23.734;2023-06-14T04:22:45;95024.72;;;19.23;100.00
9521;BME280;4798;41.574;23.734;2023-06-14T04:25:15;95039.88;;;19.48;100.00
9521;BME280;4798;41.574;23.734;2023-06-14T04:27:50;95038.50;;;19.42;100.00
9521;BME280;4798;41.574;23.734;2023-06-14T04:30:19;95029.56;;;19.50;100.00
9521;BME280;4798;41.574;23.734;2023-06-14T04:32:48;95030.25;;;19.06;100.00
9521;BME280;4798;41.574;23.734;2023-06-14T04:35:20;95048.03;;;18.98;100.00
9521;BME280;4798;41.574;23.734;2023-06-14T04:37:50;95052.78;;;19.13;100.00
9521;BME280;4798;41.574;23.734;2023-06-14T04:40:21;95047.59;;;19.49;100.00
9521;BME280;4798;41.574;23.734;2023-06-14T04:42:50;95056.28;;;19.79;100.00
9521;BME280;4798;41.574;23.734;2023-06-14T04:45:19;95055.44;;;19.42;100.00
9521;BME280;4798;41.574;23.734;2023-06-14T04:47:48;95057.69;;;19.32;100.00
9521;BME280;4798;41.574;23.734;2023-06-14T04:50:17;95055.59;;;19.58;100.00
9521;BME280;4798;41.574;23.734;2023-06-14T04:52:47;95059.94;;;19.30;100.00
9521;BME280;4798;41.574;23.734;2023-06-14T04:55:18;95050.84;;;19.43;100.00
9521;BME280;4798;41.574;23.734;2023-06-14T04:57:49;95061.09;;;19.74;100.00
9521;BME280;4798;41.574;23.734;2023-06-14T05:00:20;95064.66;;;20.10;100.00
9521;BME280;4798;41.574;23.734;2023-06-14T05:02:50;95067.72;;;20.45;100.00
9521;BME280;4798;41.574;23.734;2023-06-14T05:05:20;95067.13;;;20.52;100.00
9521;BME280;4798;41.574;23.734;2023-06-14T05:07:48;95074.34;;;20.48;100.00
9521;BME280;4798;41.574;23.734;2023-06-14T05:10:17;95056.69;;;20.62;100.00
9521;BME280;4798;41.574;23.734;2023-06-14T05:12:45;95068.00;;;20.92;100.00
9521;BME280;4798;41.574;23.734;2023-06-14T05:15:16;95033.94;;;20.72;100.00
9521;BME280;4798;41.574;23.734;2023-06-14T05:17:45;95059.44;;;21.02;100.00
9521;BME280;4798;41.574;23.734;2023-06-14T05:20:20;95071.56;;;21.08;100.00
9521;BME280;4798;41.574;23.734;2023-06-14T05:22:50;95069.72;;;20.72;100.00
9521;BME280;4798;41.574;23.734;2023-06-14T05:25:19;95066.53;;;20.82;100.00
9521;BME280;4798;41.574;23.734;2023-06-14T05:27:47;95038.69;;;20.90;100.00
9521;BME280;4798;41.574;23.734;2023-06-14T05:30:17;95072.97;;;20.78;100.00
9521;BME280;4798;41.574;23.734;2023-06-14T05:32:46;95080.25;;;20.29;100.00
9521;BME280;4798;41.574;23.734;2023-06-14T05:35:15;95081.41;;;20.52;100.00
9521;BME280;4798;41.574;23.734;2023-06-14T05:37:44;95083.53;;;20.47;100.00
9521;BME280;4798;41.574;23.734;2023-06-14T05:40:12;95083.94;;;20.12;100.00
9521;BME280;4798;41.574;23.734;2023-06-14T05:42:41;95078.59;;;20.49;100.00
9521;BME280;4798;41.574;23.734;2023-06-14T05:45:09;95082.56;;;21.03;100.00
9521;BME280;4798;41.574;23.734;2023-06-14T05:47:39;94959.59;;;20.83;100.00
9521;BME280;4798;41.574;23.734;2023-06-14T05:50:09;95075.78;;;21.77;100.00
9521;BME280;4798;41.574;23.734;2023-06-14T05:52:37;95085.88;;;21.36;100.00
9521;BME280;4798;41.574;23.734;2023-06-14T05:55:06;95087.88;;;20.75;100.00
9521;BME280;4798;41.574;23.734;2023-06-14T05:57:34;95088.56;;;21.36;100.00
9521;BME280;4798;41.574;23.734;2023-06-14T06:00:04;95087.78;;;21.36;100.00
9521;BME280;4798;41.574;23.734;2023-06-14T06:02:38;95042.09;;;22.14;100.00
9521;BME280;4798;41.574;23.734;2023-06-14T06:05:07;95086.75;;;22.43;100.00
9521;BME280;4798;41.574;23.734;2023-06-14T06:07:36;95087.47;;;22.71;96.79
9521;BME280;4798;41.574;23.734;2023-06-14T06:10:05;95081.00;;;23.10;93.12
9521;BME280;4798;41.574;23.734;2023-06-14T06:12:33;95075.38;;;23.19;90.68
9521;BME280;4798;41.574;23.734;2023-06-14T06:15:02;95083.84;;;23.17;90.69
9521;BME280;4798;41.574;23.734;2023-06-14T06:17:31;95081.41;;;23.47;89.26
9521;BME280;4798;41.574;23.734;2023-06-14T06:20:22;95082.56;;;23.30;92.13
9521;BME280;4798;41.574;23.734;2023-06-14T06:22:56;95085.81;;;23.74;89.05
9521;BME280;4798;41.574;23.734;2023-06-14T06:25:25;95086.47;;;23.68;87.08
9521;BME280;4798;41.574;23.734;2023-06-14T06:27:54;95071.81;;;24.11;84.39
9521;BME280;4798;41.574;23.734;2023-06-14T06:30:24;95088.31;;;24.06;85.13
9521;BME280;4798;41.574;23.734;2023-06-14T06:32:53;95091.94;;;23.52;88.80
9521;BME280;4798;41.574;23.734;2023-06-14T06:35:24;95079.06;;;24.29;83.28
9521;BME280;4798;41.574;23.734;2023-06-14T06:37:52;95080.50;;;24.69;82.74
9521;BME280;4798;41.574;23.734;2023-06-14T06:40:21;95085.09;;;24.19;82.20
9521;BME280;4798;41.574;23.734;2023-06-14T06:42:49;95077.94;;;24.08;81.65
9521;BME280;4798;41.574;23.734;2023-06-14T06:45:18;95083.41;;;24.34;80.71
9521;BME280;4798;41.574;23.734;2023-06-14T06:47:48;95062.19;;;23.94;81.27
9521;BME280;4798;41.574;23.734;2023-06-14T06:50:18;95086.88;;;24.31;77.53
9521;BME280;4798;41.574;23.734;2023-06-14T06:52:48;95081.09;;;24.81;77.46
9521;BME280;4798;41.574;23.734;2023-06-14T06:55:17;95083.63;;;25.86;74.09
9521;BME280;4798;41.574;23.734;2023-06-14T06:57:45;95080.78;;;25.42;71.77
9521;BME280;4798;41.574;23.734;2023-06-14T07:00:14;95072.69;;;24.90;71.72
9521;BME280;4798;41.574;23.734;2023-06-14T07:02:43;95068.19;;;25.94;70.46
9521;BME280;4798;41.574;23.734;2023-06-14T07:05:12;95075.41;;;25.79;69.38
9521;BME280;4798;41.574;23.734;2023-06-14T07:07:41;95015.78;;;25.53;68.64
9521;BME280;4798;41.574;23.734;2023-06-14T07:10:11;95075.97;;;26.79;64.81
9521;BME280;4798;41.574;23.734;2023-06-14T07:12:39;95045.97;;;27.30;63.42
9521;BME280;4798;41.574;23.734;2023-06-14T07:15:09;95076.13;;;26.49;62.93
9521;BME280;4798;41.574;23.734;2023-06-14T07:17:38;95073.00;;;26.07;65.16
9521;BME280;4798;41.574;23.734;2023-06-14T07:20:08;95070.47;;;26.69;64.25
9521;BME280;4798;41.574;23.734;2023-06-14T07:22:39;95066.53;;;27.17;64.27
9521;BME280;4798;41.574;23.734;2023-06-14T07:25:10;95068.06;;;26.60;62.35
9521;BME280;4798;41.574;23.734;2023-06-14T07:27:43;95060.66;;;27.15;62.40
9521;BME280;4798;41.574;23.734;2023-06-14T07:30:12;95065.81;;;27.27;61.44
9521;BME280;4798;41.574;23.734;2023-06-14T07:32:40;95044.53;;;27.54;58.68
9521;BME280;4798;41.574;23.734;2023-06-14T07:35:09;95057.38;;;27.53;59.72
9521;BME280;4798;41.574;23.734;2023-06-14T07:37:37;95063.09;;;27.38;59.62
9521;BME280;4798;41.574;23.734;2023-06-14T07:40:07;95045.31;;;27.58;59.33
9521;BME280;4798;41.574;23.734;2023-06-14T07:42:38;95039.75;;;27.33;59.83
9521;BME280;4798;41.574;23.734;2023-06-14T07:45:07;95037.16;;;26.82;60.76
9521;BME280;4798;41.574;23.734;2023-06-14T07:47:36;95049.00;;;28.11;59.40
9521;BME280;4798;41.574;23.734;2023-06-14T07:50:05;95064.63;;;28.67;58.25
9521;BME280;4798;41.574;23.734;2023-06-14T07:52:34;95064.63;;;28.67;55.63
9521;BME280;4798;41.574;23.734;2023-06-14T07:55:02;95064.59;;;28.28;57.22
9521;BME280;4798;41.574;23.734;2023-06-14T07:57:31;95025.66;;;28.77;55.64
9521;BME280;4798;41.574;23.734;2023-06-14T08:00:01;95063.69;;;27.82;54.98
9521;BME280;4798;41.574;23.734;2023-06-14T08:02:33;95068.47;;;28.03;55.64
9521;BME280;4798;41.574;23.734;2023-06-14T08:05:01;95068.75;;;27.91;58.18
9521;BME280;4798;41.574;23.734;2023-06-14T08:07:30;95068.13;;;28.82;55.79
9521;BME280;4798;41.574;23.734;2023-06-14T08:09:58;95056.28;;;29.45;53.50
9521;BME280;4798;41.574;23.734;2023-06-14T08:12:27;95073.91;;;29.19;54.20
9521;BME280;4798;41.574;23.734;2023-06-14T08:14:56;95063.34;;;29.39;53.59
9521;BME280;4798;41.574;23.734;2023-06-14T08:17:44;95055.59;;;29.13;56.57
9521;BME280;4798;41.574;23.734;2023-06-14T08:20:13;95051.81;;;29.93;53.04
9521;BME280;4798;41.574;23.734;2023-06-14T08:22:43;95047.50;;;29.99;51.53
9521;BME280;4798;41.574;23.734;2023-06-14T08:25:13;95063.72;;;29.48;52.11
9521;BME280;4798;41.574;23.734;2023-06-14T08:27:42;95078.22;;;28.32;53.58
9521;BME280;4798;41.574;23.734;2023-06-14T08:30:12;95070.44;;;28.98;54.05
9521;BME280;4798;41.574;23.734;2023-06-14T08:32:40;95072.75;;;28.07;55.67
9521;BME280;4798;41.574;23.734;2023-06-14T08:35:10;95069.94;;;27.83;56.37
9521;BME280;4798;41.574;23.734;2023-06-14T08:37:39;95072.34;;;28.02;56.04
9521;BME280;4798;41.574;23.734;2023-06-14T08:40:23;95069.63;;;29.25;54.98
9521;BME280;4798;41.574;23.734;2023-06-14T08:42:53;95064.13;;;29.32;54.21
9521;BME280;4798;41.574;23.734;2023-06-14T08:45:22;95003.47;;;28.68;54.96
9521;BME280;4798;41.574;23.734;2023-06-14T08:47:55;95068.41;;;27.92;57.88
9521;BME280;4798;41.574;23.734;2023-06-14T08:50:29;95071.00;;;27.57;60.32
9521;BME280;4798;41.574;23.734;2023-06-14T08:53:01;95064.84;;;27.02;62.67
9521;BME280;4798;41.574;23.734;2023-06-14T08:55:32;95072.19;;;27.63;62.35
9521;BME280;4798;41.574;23.734;2023-06-14T08:58:04;95080.50;;;27.12;65.39
9521;BME280;4798;41.574;23.734;2023-06-14T09:00:32;95079.00;;;26.71;65.46
9521;BME280;4798;41.574;23.734;2023-06-14T09:03:01;95067.72;;;27.23;64.05
9521;BME280;4798;41.574;23.734;2023-06-14T09:05:32;95068.56;;;26.29;67.61
9521;BME280;4798;41.574;23.734;2023-06-14T09:08:00;95058.97;;;26.93;66.31
9521;BME280;4798;41.574;23.734;2023-06-14T09:10:32;95049.16;;;27.39;63.96
9521;BME280;4798;41.574;23.734;2023-06-14T09:13:02;95053.13;;;26.84;65.66
9521;BME280;4798;41.574;23.734;2023-06-14T09:15:31;95052.50;;;27.12;64.38
9521;BME280;4798;41.574;23.734;2023-06-14T09:18:01;95054.47;;;27.18;63.88
9521;BME280;4798;41.574;23.734;2023-06-14T09:20:32;95048.31;;;26.70;63.91
9521;BME280;4798;41.574;23.734;2023-06-14T09:23:00;95039.28;;;26.56;63.82
9521;BME280;4798;41.574;23.734;2023-06-14T09:25:29;95042.97;;;27.42;61.37
9521;BME280;4798;41.574;23.734;2023-06-14T09:28:06;94988.25;;;26.89;62.26
9521;BME280;4798;41.574;23.734;2023-06-14T09:30:37;95035.78;;;28.24;59.38
9521;BME280;4798;41.574;23.734;2023-06-14T09:33:05;94991.63;;;29.17;57.32
9521;BME280;4798;41.574;23.734;2023-06-14T09:35:36;95040.78;;;30.11;53.43
9521;BME280;4798;41.574;23.734;2023-06-14T09:38:04;95036.72;;;29.64;54.30
9521;BME280;4798;41.574;23.734;2023-06-14T09:40:35;95037.47;;;30.85;52.11
9521;BME280;4798;41.574;23.734;2023-06-14T09:43:07;95026.31;;;31.43;50.83
9521;BME280;4798;41.574;23.734;2023-06-14T09:45:38;95013.25;;;29.77;49.36
9521;BME280;4798;41.574;23.734;2023-06-14T09:48:08;94976.94;;;29.84;48.22
9521;BME280;4798;41.574;23.734;2023-06-14T09:50:39;95025.25;;;29.97;48.94
9521;BME280;4798;41.574;23.734;2023-06-14T09:53:11;94982.81;;;28.28;50.01
9521;BME280;4798;41.574;23.734;2023-06-14T09:55:41;95025.25;;;28.05;50.91
9521;BME280;4798;41.574;23.734;2023-06-14T09:58:10;95023.28;;;28.02;52.01
9521;BME280;4798;41.574;23.734;2023-06-14T10:00:40;95018.66;;;28.20;52.71
9521;BME280;4798;41.574;23.734;2023-06-14T10:03:13;95012.78;;;28.21;53.77
9521;BME280;4798;41.574;23.734;2023-06-14T10:05:44;95013.97;;;28.77;53.09
9521;BME280;4798;41.574;23.734;2023-06-14T10:08:14;95008.50;;;28.80;54.02
9521;BME280;4798;41.574;23.734;2023-06-14T10:10:44;95003.47;;;28.68;56.21
9521;BME280;4798;41.574;23.734;2023-06-14T10:13:13;95002.00;;;29.57;56.34
9521;BME280;4798;41.574;23.734;2023-06-14T10:15:48;95005.69;;;29.16;54.64
9521;BME280;4798;41.574;23.734;2023-06-14T10:18:26;95010.44;;;28.23;57.06
9521;BME280;4798;41.574;23.734;2023-06-14T10:21:03;95008.88;;;28.97;54.65
9521;BME280;4798;41.574;23.734;2023-06-14T10:23:37;95017.00;;;30.01;54.33
9521;BME280;4798;41.574;23.734;2023-06-14T10:26:18;95000.88;;;30.21;52.63
9521;BME280;4798;41.574;23.734;2023-06-14T10:28:59;94996.28;;;29.31;55.47
9521;BME280;4798;41.574;23.734;2023-06-14T10:31:43;94998.41;;;28.39;58.92
9521;BME280;4798;41.574;23.734;2023-06-14T10:34:13;94999.50;;;27.78;58.55
9521;BME280;4798;41.574;23.734;2023-06-14T10:37:02;94967.50;;;26.64;60.51
9521;BME280;4798;41.574;23.734;2023-06-14T10:39:32;95009.75;;;26.51;63.07
9521;BME280;4798;41.574;23.734;2023-06-14T10:42:05;95014.63;;;26.78;63.86
9521;BME280;4798;41.574;23.734;2023-06-14T10:44:42;95018.09;;;27.47;62.91
9521;BME280;4798;41.574;23.734;2023-06-14T10:47:20;95016.75;;;26.55;65.25
9521;BME280;4798;41.574;23.734;2023-06-14T10:49:51;95012.97;;;26.70;67.02
9521;BME280;4798;41.574;23.734;2023-06-14T10:52:26;95013.84;;;26.81;65.39
9521;BME280;4798;41.574;23.734;2023-06-14T10:55:06;95005.78;;;28.03;62.90
9521;BME280;4798;41.574;23.734;2023-06-14T10:57:37;95006.47;;;27.79;61.31
9521;BME280;4798;41.574;23.734;2023-06-14T11:00:10;94951.25;;;27.96;58.77
9521;BME280;4798;41.574;23.734;2023-06-14T11:05:49;95001.03;;;29.06;56.36
9521;BME280;4798;41.574;23.734;2023-06-14T11:11:15;94984.47;;;30.21;54.50
9521;BME280;4798;41.574;23.734;2023-06-14T11:13:45;94982.28;;;31.27;52.52
9521;BME280;4798;41.574;23.734;2023-06-14T11:16:15;94970.19;;;30.91;53.48
9521;BME280;4798;41.574;23.734;2023-06-14T11:18:44;94986.00;;;30.25;51.71
9521;BME280;4798;41.574;23.734;2023-06-14T11:21:16;94969.78;;;31.26;52.99
9521;BME280;4798;41.574;23.734;2023-06-14T11:23:54;94944.06;;;30.46;51.64
9521;BME280;4798;41.574;23.734;2023-06-14T11:26:28;94972.66;;;31.50;48.97
9521;BME280;4798;41.574;23.734;2023-06-14T11:28:58;94908.53;;;31.13;47.03
9521;BME280;4798;41.574;23.734;2023-06-14T11:31:27;94972.28;;;31.14;48.02
9521;BME280;4798;41.574;23.734;2023-06-14T11:33:58;94799.16;;;29.57;47.21
9521;BME280;4798;41.574;23.734;2023-06-14T11:36:27;94956.22;;;31.50;47.75
9521;BME280;4798;41.574;23.734;2023-06-14T11:38:58;94957.03;;;32.03;46.26
9521;BME280;4798;41.574;23.734;2023-06-14T11:41:36;94942.25;;;32.44;46.00
9521;BME280;4798;41.574;23.734;2023-06-14T11:44:05;94951.81;;;32.13;47.80
9521;BME280;4798;41.574;23.734;2023-06-14T11:46:33;94956.44;;;30.98;47.45
9521;BME280;4798;41.574;23.734;2023-06-14T11:49:02;94963.78;;;30.19;47.81
9521;BME280;4798;41.574;23.734;2023-06-14T11:51:32;94948.31;;;30.91;48.18
9521;BME280;4798;41.574;23.734;2023-06-14T11:54:02;94918.25;;;29.99;48.75
9521;BME280;4798;41.574;23.734;2023-06-14T11:56:31;94958.09;;;30.00;49.22
9521;BME280;4798;41.574;23.734;2023-06-14T11:59:02;94960.75;;;30.10;48.94
9521;BME280;4798;41.574;23.734;2023-06-14T12:01:35;94965.63;;;28.77;49.05
9521;BME280;4798;41.574;23.734;2023-06-14T12:04:05;94971.13;;;28.67;50.78
9521;BME280;4798;41.574;23.734;2023-06-14T12:06:34;94964.91;;;28.31;51.89
9521;BME280;4798;41.574;23.734;2023-06-14T12:09:07;94949.25;;;28.84;52.13
9521;BME280;4798;41.574;23.734;2023-06-14T12:11:40;94970.75;;;28.68;52.21
9521;BME280;4798;41.574;23.734;2023-06-14T12:14:10;94962.53;;;28.72;52.51
9521;BME280;4798;41.574;23.734;2023-06-14T12:16:40;94908.09;;;28.05;54.42
9521;BME280;4798;41.574;23.734;2023-06-14T12:19:13;94976.13;;;27.77;56.03
9521;BME280;4798;41.574;23.734;2023-06-14T12:21:43;94976.19;;;27.98;54.42
9521;BME280;4798;41.574;23.734;2023-06-14T12:24:13;94971.13;;;28.03;52.05
9521;BME280;4798;41.574;23.734;2023-06-14T12:26:42;94978.09;;;27.87;51.94
9521;BME280;4798;41.574;23.734;2023-06-14T12:29:12;94971.44;;;27.66;52.95
9521;BME280;4798;41.574;23.734;2023-06-14T12:31:41;94990.59;;;28.33;52.86
9521;BME280;4798;41.574;23.734;2023-06-14T12:34:09;94969.97;;;28.43;51.42
9521;BME280;4798;41.574;23.734;2023-06-14T12:36:38;94968.41;;;28.74;53.46
9521;BME280;4798;41.574;23.734;2023-06-14T12:39:11;94930.22;;;28.63;53.43
9521;BME280;4798;41.574;23.734;2023-06-14T12:41:40;94965.56;;;29.02;53.01
9521;BME280;4798;41.574;23.734;2023-06-14T12:44:11;94966.78;;;28.94;51.96
9521;BME280;4798;41.574;23.734;2023-06-14T12:46:40;94819.69;;;28.23;53.69
9521;BME280;4798;41.574;23.734;2023-06-14T12:49:10;94982.19;;;29.43;54.59
9521;BME280;4798;41.574;23.734;2023-06-14T12:51:40;94986.22;;;29.93;53.45
9521;BME280;4798;41.574;23.734;2023-06-14T12:54:09;94983.97;;;28.52;57.28
9521;BME280;4798;41.574;23.734;2023-06-14T12:56:37;94978.06;;;26.76;62.68
9521;BME280;4798;41.574;23.734;2023-06-14T12:59:06;94975.75;;;25.79;66.19
9521;BME280;4798;41.574;23.734;2023-06-14T13:01:38;94982.97;;;26.05;62.12
9521;BME280;4798;41.574;23.734;2023-06-14T13:04:06;94975.31;;;25.41;64.37
9521;BME280;4798;41.574;23.734;2023-06-14T13:06:35;94982.41;;;25.49;69.49
9521;BME280;4798;41.574;23.734;2023-06-14T13:09:04;94993.72;;;24.39;77.76
9521;BME280;4798;41.574;23.734;2023-06-14T13:11:33;95003.00;;;23.92;91.92
9521;BME280;4798;41.574;23.734;2023-06-14T13:14:02;95008.78;;;22.92;80.11
9521;BME280;4798;41.574;23.734;2023-06-14T13:16:51;95001.28;;;22.50;94.67
9521;BME280;4798;41.574;23.734;2023-06-14T13:19:20;94997.56;;;21.33;100.00
9521;BME280;4798;41.574;23.734;2023-06-14T13:21:49;94998.25;;;21.30;100.00
9521;BME280;4798;41.574;23.734;2023-06-14T13:24:17;94999.94;;;21.35;100.00
9521;BME280;4798;41.574;23.734;2023-06-14T13:26:45;95011.63;;;21.98;100.00